Time;durP1;ratioP1;P1;durP2;ratioP2;P2;SDS_P1;SDS_P2;PMS_P1;PMS_P2;Temp;Humidity;BMP_temperature;BMP_pressure;BME280_temperature;BME280_humidity;BME280_pressure;Samples;Min_cycle;Max_cycle;Signal;HPM_P1;HPM_P2
2021/09/05 00:01:22;;;;;;;38.03;17.42;;;14.00;99.90;;;;;;5080805;28;20040;-77
2021/09/05 00:03:48;;;;;;;40.45;18.48;;;13.90;99.90;;;;;;5061975;28;20029;-77
2021/09/05 00:06:15;;;;;;;43.28;17.95;;;13.90;99.90;;;;;;5070113;28;20089;-77
2021/09/05 00:08:44;;;;;;;40.85;18.20;;;13.90;99.90;;;;;;5070006;28;20028;-78
2021/09/05 00:11:11;;;;;;;36.65;16.75;;;13.80;99.90;;;;;;5078066;28;20106;-78
2021/09/05 00:13:37;;;;;;;34.30;16.73;;;13.80;99.90;;;;;;5084278;22;20021;-82
2021/09/05 00:16:03;;;;;;;39.78;18.00;;;13.80;99.90;;;;;;5015060;28;20049;-82
2021/09/05 00:18:28;;;;;;;33.55;17.33;;;13.70;99.90;;;;;;5008678;28;20029;-81
2021/09/05 00:20:54;;;;;;;39.05;17.08;;;13.70;99.90;;;;;;4995974;28;20041;-84
2021/09/05 00:23:20;;;;;;;42.20;16.20;;;13.70;99.90;;;;;;5007352;28;20315;-83
2021/09/05 00:25:45;;;;;;;30.92;15.18;;;13.60;99.90;;;;;;5002989;28;20050;-83
2021/09/05 00:28:11;;;;;;;34.15;16.15;;;13.70;99.90;;;;;;5023021;28;20064;-83
2021/09/05 00:30:37;;;;;;;34.85;16.00;;;13.60;99.90;;;;;;4991228;28;20026;-83
2021/09/05 00:33:07;;;;;;;37.17;16.65;;;13.60;99.90;;;;;;5021659;28;20635;-82
2021/09/05 00:35:34;;;;;;;32.47;15.75;;;13.50;99.90;;;;;;5036507;28;20033;-83
2021/09/05 00:38:00;;;;;;;33.90;15.55;;;13.50;99.90;;;;;;5037696;28;20112;-84
2021/09/05 00:40:26;;;;;;;34.58;17.02;;;13.50;99.90;;;;;;5003927;28;20500;-83
2021/09/05 00:42:51;;;;;;;35.50;17.08;;;13.50;99.90;;;;;;5020792;28;20037;-81
2021/09/05 00:45:17;;;;;;;42.20;17.33;;;13.40;99.90;;;;;;5019048;28;20451;-83
2021/09/05 00:47:43;;;;;;;30.85;15.38;;;13.40;99.90;;;;;;5004230;28;20514;-84
2021/09/05 00:50:12;;;;;;;34.85;15.65;;;13.40;99.90;;;;;;5003076;28;20021;-83
2021/09/05 00:52:39;;;;;;;36.60;16.83;;;13.30;99.90;;;;;;5037659;28;20025;-82
2021/09/05 00:55:06;;;;;;;41.05;18.13;;;13.30;99.90;;;;;;5004500;28;20406;-83
2021/09/05 00:57:32;;;;;;;34.08;16.77;;;13.30;99.90;;;;;;5002907;28;20031;-82
2021/09/05 00:59:59;;;;;;;42.58;17.85;;;13.30;99.90;;;;;;5001016;28;20572;-82
2021/09/05 01:02:27;;;;;;;37.83;17.58;;;13.20;99.90;;;;;;5016734;28;20459;-83
2021/09/05 01:04:54;;;;;;;39.78;17.13;;;13.20;99.90;;;;;;5002247;28;20029;-83
2021/09/05 01:07:23;;;;;;;35.25;16.08;;;13.20;99.90;;;;;;5003473;28;20036;-83
2021/09/05 01:09:49;;;;;;;33.50;16.05;;;13.20;99.90;;;;;;5018853;28;20400;-83
2021/09/05 01:12:15;;;;;;;36.25;16.25;;;13.20;99.90;;;;;;5003200;28;20033;-83
2021/09/05 01:14:41;;;;;;;32.90;15.35;;;13.10;99.90;;;;;;4992487;28;20033;-83
2021/09/05 01:17:10;;;;;;;42.30;17.70;;;13.10;99.90;;;;;;5002477;28;20037;-83
2021/09/05 01:19:53;;;;;;;42.75;17.33;;;13.10;99.90;;;;;;5021182;28;20047;-82
2021/09/05 01:22:37;;;;;;;38.78;17.27;;;13.10;99.90;;;;;;5036636;28;20165;-83
2021/09/05 01:25:40;;;;;;;41.38;17.90;;;13.10;99.90;;;;;;4942486;29;20477;-83
2021/09/05 01:28:25;;;;;;;38.53;16.83;;;13.00;99.90;;;;;;5024422;28;20438;-83
2021/09/05 01:31:17;;;;;;;39.70;18.58;;;13.00;99.90;;;;;;5008614;28;20036;-83
2021/09/05 01:34:20;;;;;;;41.25;17.55;;;13.00;99.90;;;;;;4947240;28;20035;-82
2021/09/05 01:37:04;;;;;;;37.05;16.95;;;13.00;99.90;;;;;;5022975;28;20098;-82
2021/09/05 01:39:48;;;;;;;39.38;15.93;;;13.00;99.90;;;;;;5007467;28;20607;-83
2021/09/05 01:42:37;;;;;;;37.13;16.38;;;12.90;99.90;;;;;;5014236;28;20042;-82
2021/09/05 01:45:22;;;;;;;36.63;16.10;;;12.90;99.90;;;;;;5003890;28;20049;-82
2021/09/05 01:48:10;;;;;;;32.80;15.38;;;12.90;99.90;;;;;;4996798;28;20034;-82
2021/09/05 01:50:56;;;;;;;;;;;12.80;99.90;;;;;;5008737;28;20534;-81
2021/09/05 01:53:57;;;;;;;37.22;15.65;;;12.80;99.90;;;;;;4965393;28;20000;-83
2021/09/05 01:56:41;;;;;;;39.10;17.55;;;12.80;99.90;;;;;;4996557;28;20029;-82
2021/09/05 01:59:25;;;;;;;37.55;16.27;;;12.80;99.90;;;;;;5019759;28;20060;-82
2021/09/05 02:02:09;;;;;;;32.45;15.27;;;12.70;99.90;;;;;;5005598;28;20091;-81
2021/09/05 02:05:07;;;;;;;36.17;15.57;;;12.70;99.90;;;;;;5030909;28;20048;-82
2021/09/05 02:07:51;;;;;;;39.65;17.17;;;12.60;99.90;;;;;;5034349;28;20111;-83
2021/09/05 02:10:40;;;;;;;36.33;15.63;;;12.60;99.90;;;;;;4976202;28;20041;-82
2021/09/05 02:13:24;;;;;;;36.67;15.82;;;12.60;99.90;;;;;;5027987;28;20052;-82
2021/09/05 02:16:10;;;;;;;;;;;12.50;99.90;;;;;;5037185;28;20514;-81
2021/09/05 02:18:49;;;;;;;38.75;17.05;;;12.60;99.90;;;;;;5012536;28;19948;-84
2021/09/05 02:21:43;;;;;;;40.95;18.27;;;12.50;99.90;;;;;;5027618;28;20120;-82
2021/09/05 02:24:32;;;;;;;49.10;18.40;;;12.50;99.90;;;;;;4994516;28;20095;-82
2021/09/05 02:27:19;;;;;;;37.00;18.17;;;12.50;99.90;;;;;;4994619;28;20060;-82
2021/09/05 02:29:45;;;;;;;38.70;17.23;;;12.50;99.90;;;;;;5015509;28;20072;-81
2021/09/05 02:32:33;;;;;;;40.60;18.08;;;12.50;99.90;;;;;;5008663;28;20032;-82
2021/09/05 02:35:30;;;;;;;35.72;16.58;;;12.50;99.90;;;;;;4996977;28;20376;-82
2021/09/05 02:38:25;;;;;;;35.58;16.00;;;12.50;99.90;;;;;;4960211;28;20106;-81
2021/09/05 02:41:11;;;;;;;;;;;12.40;99.90;;;;;;5007844;28;20030;-81
2021/09/05 02:44:12;;;;;;;45.67;18.60;;;12.40;99.90;;;;;;5026351;28;19917;-83
2021/09/05 02:47:07;;;;;;;40.97;17.38;;;12.40;99.90;;;;;;4977156;28;20649;-82
2021/09/05 02:49:52;;;;;;;42.20;17.77;;;12.40;99.90;;;;;;4993372;28;20147;-81
2021/09/05 02:52:53;;;;;;;42.65;17.70;;;12.40;99.90;;;;;;5002017;28;20038;-82
2021/09/05 02:55:54;;;;;;;39.65;15.48;;;12.40;99.90;;;;;;4973530;28;20054;-81
2021/09/05 02:58:45;;;;;;;39.00;16.83;;;12.40;99.90;;;;;;5008056;28;20109;-81
2021/09/05 03:01:31;;;;;;;40.88;16.75;;;12.40;99.90;;;;;;4969098;28;20436;-83
2021/09/05 03:04:16;;;;;;;36.58;15.90;;;12.30;99.90;;;;;;5002902;28;20036;-82
2021/09/05 03:07:12;;;;;;;35.38;15.05;;;12.30;99.90;;;;;;5003069;28;20060;-81
2021/09/05 03:10:07;;;;;;;34.22;14.88;;;12.30;99.90;;;;;;4987665;28;20114;-82
2021/09/05 03:12:52;;;;;;;28.33;14.65;;;12.30;99.90;;;;;;4988802;28;20040;-81
2021/09/05 03:15:36;;;;;;;29.42;13.77;;;12.20;99.90;;;;;;5012074;28;20125;-81
2021/09/05 03:18:25;;;;;;;26.15;13.43;;;12.20;99.90;;;;;;4987436;28;20037;-81
2021/09/05 03:21:13;;;;;;;26.38;12.98;;;12.20;99.90;;;;;;5013998;28;20037;-82
2021/09/05 03:23:59;;;;;;;26.42;13.05;;;12.20;99.90;;;;;;5005673;28;20045;-81
2021/09/05 03:26:43;;;;;;;33.78;14.55;;;12.20;99.90;;;;;;5020259;28;20052;-82
2021/09/05 03:29:30;;;;;;;33.55;15.82;;;12.10;99.90;;;;;;5001741;28;20030;-81
2021/09/05 03:32:22;;;;;;;36.05;16.80;;;12.10;99.90;;;;;;5008014;28;20088;-82
2021/09/05 03:35:22;;;;;;;37.17;15.80;;;12.10;99.90;;;;;;5018399;28;20049;-81
2021/09/05 03:38:23;;;;;;;33.88;15.57;;;12.10;99.90;;;;;;5006985;28;20392;-81
2021/09/05 03:41:12;;;;;;;34.95;14.85;;;12.10;99.90;;;;;;5003465;28;20089;-81
2021/09/05 03:44:07;;;;;;;36.25;14.35;;;12.10;99.90;;;;;;5010882;28;20562;-80
2021/09/05 03:47:05;;;;;;;33.67;14.27;;;12.00;99.90;;;;;;5013734;28;20037;-82
2021/09/05 03:49:54;;;;;;;31.33;14.52;;;12.10;99.90;;;;;;5018759;28;20522;-81
2021/09/05 03:52:21;;;;;;;38.67;17.83;;;12.00;99.90;;;;;;5025846;28;20048;-81
2021/09/05 03:54:46;;;;;;;36.22;16.38;;;12.10;99.90;;;;;;5003285;28;20033;-81
2021/09/05 03:57:12;;;;;;;38.28;14.90;;;12.10;99.90;;;;;;5018615;28;20034;-82
2021/09/05 03:59:38;;;;;;;34.45;15.60;;;12.10;99.90;;;;;;4980226;28;20029;-81
2021/09/05 04:02:09;;;;;;;33.47;15.15;;;12.10;99.90;;;;;;4989373;28;20028;-82
2021/09/05 04:04:36;;;;;;;32.80;14.38;;;12.10;99.90;;;;;;4985678;28;20021;-82
2021/09/05 04:07:02;;;;;;;33.85;16.08;;;12.10;99.90;;;;;;5034979;28;20372;-80
2021/09/05 04:12:13;;;;;;;34.17;15.33;;;12.10;99.90;;;;;;5037035;28;20068;-82
2021/09/05 04:14:39;;;;;;;34.58;15.40;;;12.10;99.90;;;;;;5000741;28;20292;-82
2021/09/05 04:17:05;;;;;;;32.08;14.50;;;12.10;99.90;;;;;;4993734;28;20025;-81
2021/09/05 04:19:31;;;;;;;41.67;17.95;;;12.20;99.90;;;;;;5019477;28;20484;-81
2021/09/05 04:21:57;;;;;;;53.15;19.77;;;12.20;99.90;;;;;;5002649;28;20037;-82
2021/09/05 04:24:22;;;;;;;41.42;17.33;;;12.10;99.90;;;;;;5020481;28;20044;-82
2021/09/05 04:26:48;;;;;;;47.60;18.42;;;12.20;99.90;;;;;;5025376;28;20064;-82
2021/09/05 04:29:14;;;;;;;42.30;16.55;;;12.20;99.90;;;;;;5018815;28;20083;-82
2021/09/05 04:31:40;;;;;;;44.78;18.02;;;12.20;99.90;;;;;;4986343;28;20101;-81
2021/09/05 04:34:06;;;;;;;48.95;18.52;;;12.20;99.90;;;;;;4997415;28;20037;-82
2021/09/05 04:36:31;;;;;;;37.13;16.25;;;12.20;99.90;;;;;;4982660;28;20056;-81
2021/09/05 04:38:57;;;;;;;27.70;15.10;;;12.20;99.90;;;;;;5007109;28;20398;-83
2021/09/05 04:41:23;;;;;;;35.10;15.27;;;12.20;99.90;;;;;;5014930;28;20041;-81
2021/09/05 04:43:48;;;;;;;31.58;15.63;;;12.20;99.90;;;;;;5001391;28;20491;-82
2021/09/05 04:46:14;;;;;;;27.20;14.07;;;12.20;99.90;;;;;;5028672;28;20036;-83
2021/09/05 04:48:40;;;;;;;23.55;13.32;;;12.20;99.90;;;;;;5017575;28;20036;-81
2021/09/05 04:51:06;;;;;;;23.52;13.68;;;12.20;99.90;;;;;;4985437;28;20084;-81
2021/09/05 04:53:32;;;;;;;24.88;12.98;;;12.20;99.90;;;;;;5001010;28;20037;-80
2021/09/05 04:55:58;;;;;;;21.08;12.85;;;12.10;99.90;;;;;;5022620;28;20043;-81
2021/09/05 04:58:24;;;;;;;23.88;13.90;;;12.10;99.90;;;;;;5009207;28;20499;-82
2021/09/05 05:00:49;;;;;;;23.50;12.52;;;12.20;99.90;;;;;;5016991;28;20141;-82
2021/09/05 05:03:19;;;;;;;22.77;12.75;;;12.20;99.90;;;;;;5001579;28;20029;-81
2021/09/05 05:05:45;;;;;;;27.17;14.95;;;12.30;99.90;;;;;;4997001;28;20057;-82
2021/09/05 05:08:10;;;;;;;25.35;13.82;;;12.30;99.90;;;;;;5015078;28;20508;-82
2021/09/05 05:10:37;;;;;;;24.00;14.00;;;12.30;99.90;;;;;;5016497;28;20047;-81
2021/09/05 05:13:02;;;;;;;25.63;13.27;;;12.30;99.90;;;;;;5003415;28;20480;-81
2021/09/05 05:15:28;;;;;;;25.67;13.88;;;12.30;99.90;;;;;;5028237;28;20167;-81
2021/09/05 05:17:54;;;;;;;22.80;13.27;;;12.40;99.90;;;;;;5000863;28;20586;-81
2021/09/05 05:20:20;;;;;;;24.52;13.52;;;12.40;99.90;;;;;;5032655;28;20030;-81
2021/09/05 05:22:46;;;;;;;22.10;12.48;;;12.40;99.90;;;;;;4964635;28;20033;-81
2021/09/05 05:25:12;;;;;;;25.20;13.23;;;12.40;99.90;;;;;;5016725;28;20108;-82
2021/09/05 05:27:38;;;;;;;22.63;12.40;;;12.50;99.90;;;;;;5016512;28;20067;-81
2021/09/05 05:30:05;;;;;;;24.85;13.23;;;12.50;99.90;;;;;;5023907;28;20029;-80
2021/09/05 05:32:31;;;;;;;24.92;13.38;;;12.50;99.90;;;;;;5017718;28;20036;-81
2021/09/05 05:34:57;;;;;;;25.05;13.05;;;12.50;99.90;;;;;;5007592;28;20033;-81
2021/09/05 05:37:23;;;;;;;22.33;12.88;;;12.50;99.90;;;;;;5032632;28;20108;-81
2021/09/05 05:39:49;;;;;;;23.33;13.27;;;12.60;99.90;;;;;;5011377;28;20029;-81
2021/09/05 05:42:14;;;;;;;25.83;13.85;;;12.60;99.90;;;;;;5014132;28;20037;-81
2021/09/05 05:44:40;;;;;;;24.35;12.95;;;12.60;99.90;;;;;;5012495;28;20478;-80
2021/09/05 05:47:06;;;;;;;29.35;14.60;;;12.70;99.90;;;;;;5006830;28;20033;-81
2021/09/05 05:49:34;;;;;;;27.73;13.10;;;12.70;99.90;;;;;;4999128;28;20041;-83
2021/09/05 05:52:00;;;;;;;28.17;14.00;;;12.70;99.90;;;;;;5016043;28;20033;-82
2021/09/05 05:54:26;;;;;;;27.83;14.63;;;12.70;99.90;;;;;;4997866;28;20109;-81
2021/09/05 05:56:52;;;;;;;23.17;13.07;;;12.80;99.90;;;;;;4998109;28;20045;-81
2021/09/05 05:59:18;;;;;;;24.73;13.57;;;12.80;99.90;;;;;;4982662;28;20037;-81
2021/09/05 06:01:43;;;;;;;20.75;12.38;;;12.80;99.90;;;;;;4998506;28;20034;-79
2021/09/05 06:04:09;;;;;;;24.92;13.80;;;12.80;99.90;;;;;;5013640;28;20056;-80
2021/09/05 06:06:36;;;;;;;22.65;13.20;;;13.00;99.90;;;;;;4994569;28;20037;-80
2021/09/05 06:09:02;;;;;;;22.50;13.18;;;13.10;99.90;;;;;;4997509;28;20026;-80
2021/09/05 06:11:27;;;;;;;22.17;12.52;;;13.10;99.90;;;;;;4997163;28;20029;-81
2021/09/05 06:13:54;;;;;;;20.92;12.05;;;12.90;99.90;;;;;;5014072;28;20048;-81
2021/09/05 06:16:20;;;;;;;21.73;12.35;;;13.10;99.90;;;;;;4982598;28;20684;-81
2021/09/05 06:18:46;;;;;;;20.60;12.90;;;13.10;99.90;;;;;;4997684;28;20036;-80
2021/09/05 06:21:12;;;;;;;25.50;12.75;;;13.20;99.90;;;;;;5013284;28;20104;-81
2021/09/05 06:23:38;;;;;;;23.13;11.77;;;13.30;99.90;;;;;;5016752;28;20136;-81
2021/09/05 06:26:03;;;;;;;18.83;11.40;;;13.30;99.90;;;;;;5016387;28;20037;-80
2021/09/05 06:28:29;;;;;;;27.05;11.60;;;13.30;99.90;;;;;;5000629;28;20116;-81
2021/09/05 06:30:55;;;;;;;24.70;12.98;;;13.30;99.90;;;;;;4999973;28;20034;-81
2021/09/05 06:33:21;;;;;;;26.98;14.05;;;13.30;99.90;;;;;;5035066;28;20063;-81
2021/09/05 06:35:46;;;;;;;21.83;12.23;;;13.40;99.90;;;;;;4996273;28;20025;-81
2021/09/05 06:38:12;;;;;;;25.23;13.20;;;13.50;99.90;;;;;;5033409;28;20492;-80
2021/09/05 06:40:38;;;;;;;25.02;12.93;;;13.60;99.90;;;;;;4996501;28;20029;-81
2021/09/05 06:43:04;;;;;;;23.13;12.60;;;13.70;99.90;;;;;;5035870;28;20030;-82
2021/09/05 06:45:30;;;;;;;22.27;11.90;;;13.90;99.90;;;;;;5032556;28;20021;-81
2021/09/05 06:47:56;;;;;;;22.17;12.02;;;14.00;99.90;;;;;;5001036;28;20030;-81
2021/09/05 06:50:22;;;;;;;19.30;11.65;;;14.20;99.90;;;;;;4996259;28;20022;-81
2021/09/05 06:52:47;;;;;;;20.40;11.75;;;14.50;99.90;;;;;;5034609;28;20388;-81
2021/09/05 06:55:13;;;;;;;19.30;10.93;;;14.80;99.90;;;;;;5014842;28;20049;-82
2021/09/05 06:57:39;;;;;;;19.20;11.07;;;15.10;99.90;;;;;;5029289;28;20107;-80
2021/09/05 07:00:05;;;;;;;23.15;13.35;;;15.40;99.90;;;;;;4981802;28;20038;-80
2021/09/05 07:02:31;;;;;;;22.60;13.38;;;15.80;99.90;;;;;;4999776;28;20056;-82
2021/09/05 07:04:57;;;;;;;21.33;12.40;;;16.00;99.90;;;;;;5004162;28;20123;-80
2021/09/05 07:07:22;;;;;;;24.73;13.80;;;16.20;99.90;;;;;;5015236;28;20038;-82
2021/09/05 07:09:49;;;;;;;20.55;12.05;;;16.50;99.90;;;;;;5016090;28;20104;-80
2021/09/05 07:12:14;;;;;;;19.27;11.07;;;16.80;99.90;;;;;;4978264;28;20083;-80
2021/09/05 07:14:40;;;;;;;18.95;11.00;;;17.10;99.90;;;;;;5031437;28;20484;-80
2021/09/05 07:17:06;;;;;;;23.25;12.55;;;17.50;99.90;;;;;;5016221;28;20056;-81
2021/09/05 07:19:31;;;;;;;20.35;11.85;;;17.70;99.90;;;;;;4963930;28;20040;-80
2021/09/05 07:21:57;;;;;;;24.00;12.98;;;17.90;99.90;;;;;;5010930;28;20125;-81
2021/09/05 07:24:23;;;;;;;20.85;11.90;;;18.00;99.90;;;;;;5018200;28;20514;-82
2021/09/05 07:26:48;;;;;;;21.10;12.10;;;18.20;99.90;;;;;;5002760;28;20033;-80
2021/09/05 07:29:17;;;;;;;22.52;12.93;;;18.20;99.90;;;;;;5001970;28;20037;-80
2021/09/05 07:31:44;;;;;;;23.10;13.63;;;18.20;99.90;;;;;;5038159;28;20053;-82
2021/09/05 07:34:09;;;;;;;23.40;13.75;;;18.10;99.90;;;;;;5018806;28;20104;-81
2021/09/05 07:36:36;;;;;;;23.73;13.68;;;17.90;99.90;;;;;;5002257;28;20065;-81
2021/09/05 07:39:02;;;;;;;23.77;12.43;;;18.00;99.90;;;;;;5002464;28;20128;-81
2021/09/05 07:41:28;;;;;;;26.33;14.60;;;17.80;99.90;;;;;;5018286;28;20025;-80
2021/09/05 07:43:54;;;;;;;20.20;12.38;;;18.10;99.90;;;;;;5017005;28;20907;-80
2021/09/05 07:46:20;;;;;;;19.88;12.02;;;18.40;99.90;;;;;;5018027;28;20107;-80
2021/09/05 07:48:45;;;;;;;20.95;12.13;;;18.70;99.90;;;;;;5002785;28;20083;-81
2021/09/05 07:51:11;;;;;;;18.23;11.40;;;18.90;99.90;;;;;;5002164;28;20021;-81
2021/09/05 07:53:37;;;;;;;21.88;12.05;;;18.80;99.90;;;;;;5036625;28;20071;-82
2021/09/05 07:56:03;;;;;;;20.52;12.10;;;18.90;99.90;;;;;;4988939;28;20120;-80
2021/09/05 07:58:29;;;;;;;16.80;11.60;;;19.00;99.90;;;;;;5021283;28;20518;-81
2021/09/05 08:00:56;;;;;;;16.00;10.55;;;19.10;99.90;;;;;;5004064;28;20037;-80
2021/09/05 08:03:21;;;;;;;17.40;10.43;;;19.20;99.90;;;;;;5041674;28;20026;-81
2021/09/05 08:05:47;;;;;;;17.23;9.85;;;19.00;99.90;;;;;;5024737;28;20059;-80
2021/09/05 08:08:13;;;;;;;16.48;10.70;;;19.10;99.90;;;;;;4993194;28;20030;-81
2021/09/05 08:10:39;;;;;;;17.05;10.80;;;19.20;99.90;;;;;;5000365;28;20063;-80
2021/09/05 08:13:05;;;;;;;16.50;10.35;;;19.40;99.90;;;;;;4965557;28;20060;-81
2021/09/05 08:15:30;;;;;;;15.52;9.73;;;19.50;99.90;;;;;;5013496;28;20108;-80
2021/09/05 08:17:56;;;;;;;17.90;10.63;;;19.50;99.90;;;;;;5013773;28;20038;-80
2021/09/05 08:20:22;;;;;;;15.73;9.57;;;19.60;99.90;;;;;;5008307;28;20033;-80
2021/09/05 08:22:47;;;;;;;20.70;9.82;;;19.60;99.90;;;;;;4983806;28;20033;-82
2021/09/05 08:25:14;;;;;;;16.55;9.88;;;19.60;99.90;;;;;;5015329;28;20057;-80
2021/09/05 08:27:40;;;;;;;15.70;9.32;;;19.60;99.90;;;;;;5034714;28;20437;-79
2021/09/05 08:30:06;;;;;;;14.90;9.35;;;19.70;99.90;;;;;;5016557;28;20037;-80
2021/09/05 08:32:32;;;;;;;15.02;9.68;;;19.70;99.90;;;;;;5016949;28;20033;-80
2021/09/05 08:34:58;;;;;;;14.35;8.80;;;19.70;99.90;;;;;;5015112;28;20052;-80
2021/09/05 08:37:23;;;;;;;16.38;10.57;;;19.70;99.90;;;;;;5018747;28;20480;-80
2021/09/05 08:39:50;;;;;;;15.05;9.65;;;19.60;99.90;;;;;;5000222;28;20026;-80
2021/09/05 08:42:16;;;;;;;18.08;10.45;;;19.70;99.90;;;;;;5008519;28;20029;-80
2021/09/05 08:44:42;;;;;;;13.75;8.85;;;19.80;99.90;;;;;;5033248;28;20309;-80
2021/09/05 08:47:08;;;;;;;14.75;9.40;;;19.90;99.90;;;;;;5034115;28;20034;-80
2021/09/05 08:49:36;;;;;;;15.20;10.20;;;19.90;99.90;;;;;;4999476;28;20518;-80
2021/09/05 08:52:03;;;;;;;16.70;9.45;;;19.80;99.90;;;;;;5016202;28;20041;-81
2021/09/05 08:54:29;;;;;;;13.07;8.70;;;19.70;99.90;;;;;;4998622;28;20087;-82
2021/09/05 08:56:55;;;;;;;15.82;9.65;;;19.70;99.90;;;;;;5033762;28;20033;-82
2021/09/05 08:59:21;;;;;;;13.27;8.88;;;19.70;99.90;;;;;;4999688;28;20029;-81
2021/09/05 09:01:54;;;;;;;11.38;7.78;;;19.60;99.90;;;;;;5016889;28;20396;-82
2021/09/05 09:04:20;;;;;;;12.23;7.53;;;19.70;99.90;;;;;;5021796;28;20079;-83
2021/09/05 09:06:46;;;;;;;14.10;8.57;;;19.80;99.90;;;;;;5033488;28;20033;-83
2021/09/05 09:09:11;;;;;;;13.52;9.05;;;19.90;99.90;;;;;;5014020;28;20041;-82
2021/09/05 09:11:47;;;;;;;13.15;8.30;;;19.80;99.90;;;;;;5015814;28;20033;-82
2021/09/05 09:14:12;;;;;;;12.35;8.88;;;19.80;99.90;;;;;;4998151;28;20212;-82
2021/09/05 09:16:38;;;;;;;14.50;8.40;;;19.80;99.90;;;;;;5035783;28;20027;-83
2021/09/05 09:19:05;;;;;;;13.32;8.98;;;19.90;99.90;;;;;;4984356;28;20149;-84
2021/09/05 09:21:38;;;;;;;13.52;8.23;;;19.90;99.90;;;;;;5036106;28;20026;-84
2021/09/05 09:24:17;;;;;;;12.15;7.93;;;20.00;99.90;;;;;;5029257;28;20420;-83
2021/09/05 09:26:58;;;;;;;12.07;7.70;;;20.00;99.90;;;;;;4985518;28;20061;-83
2021/09/05 09:29:23;;;;;;;15.50;9.00;;;20.10;99.90;;;;;;5027010;28;20030;-83
2021/09/05 09:31:58;;;;;;;12.32;8.18;;;20.20;99.90;;;;;;5016378;28;20056;-83
2021/09/05 09:34:24;;;;;;;12.73;7.85;;;20.30;99.90;;;;;;5017537;28;20025;-82
2021/09/05 09:36:56;;;;;;;14.00;9.02;;;20.30;99.90;;;;;;5004743;28;20479;-84
2021/09/05 09:39:22;;;;;;;15.65;8.82;;;20.20;99.90;;;;;;5016885;28;20033;-82
2021/09/05 09:41:47;;;;;;;15.32;8.55;;;20.10;99.90;;;;;;5019707;28;20032;-84
2021/09/05 09:44:14;;;;;;;12.30;8.05;;;20.20;99.90;;;;;;5019930;28;20033;-83
2021/09/05 09:46:43;;;;;;;13.13;8.55;;;20.30;99.90;;;;;;5003195;28;20021;-82
2021/09/05 09:49:11;;;;;;;13.00;9.10;;;20.30;99.90;;;;;;5003569;28;20936;-83
2021/09/05 09:51:38;;;;;;;9.55;7.40;;;20.40;99.90;;;;;;4998854;28;20037;-83
2021/09/05 09:54:04;;;;;;;10.80;7.22;;;20.50;99.90;;;;;;5009144;28;20253;-83
2021/09/05 09:56:31;;;;;;;11.30;7.85;;;20.60;99.90;;;;;;5002831;28;20034;-81
2021/09/05 09:58:59;;;;;;;13.90;7.47;;;20.60;99.90;;;;;;5017791;28;20030;-82
2021/09/05 10:01:27;;;;;;;12.15;7.05;;;20.50;99.90;;;;;;5017606;28;20022;-83
2021/09/05 10:04:01;;;;;;;12.60;6.88;;;20.60;99.90;;;;;;5016053;28;20033;-82
2021/09/05 10:06:32;;;;;;;11.50;7.68;;;20.70;99.90;;;;;;5017466;28;20029;-82
2021/09/05 10:09:05;;;;;;;8.90;6.50;;;20.70;99.90;;;;;;5018135;28;20087;-81
2021/09/05 10:11:33;;;;;;;11.73;7.65;;;20.70;99.90;;;;;;4993424;28;20502;-82
2021/09/05 10:13:59;;;;;;;9.70;7.05;;;20.80;99.90;;;;;;5019363;28;20903;-83
2021/09/05 10:16:25;;;;;;;11.43;7.10;;;20.90;99.90;;;;;;5022374;28;20403;-82
2021/09/05 10:18:53;;;;;;;10.25;6.68;;;21.00;99.90;;;;;;5004244;28;20029;-82
2021/09/05 10:21:21;;;;;;;10.45;7.35;;;21.10;99.90;;;;;;5019888;28;20040;-82
2021/09/05 10:23:56;;;;;;;10.55;7.05;;;21.20;99.90;;;;;;4971598;28;20428;-81
2021/09/05 10:26:23;;;;;;;10.17;7.67;;;21.30;99.90;;;;;;5036010;28;20041;-81
2021/09/05 10:28:51;;;;;;;11.02;7.82;;;21.30;99.90;;;;;;5003955;28;20275;-83
2021/09/05 10:31:28;;;;;;;10.90;7.18;;;21.30;99.90;;;;;;5002666;28;20123;-83
2021/09/05 10:33:54;;;;;;;11.55;7.55;;;21.30;99.90;;;;;;5019479;28;20076;-82
2021/09/05 10:36:23;;;;;;;8.98;6.90;;;21.30;99.90;;;;;;5010754;28;20472;-83
2021/09/05 10:38:49;;;;;;;8.63;6.78;;;21.40;99.90;;;;;;5024290;28;20547;-83
2021/09/05 10:41:21;;;;;;;9.63;6.75;;;21.40;99.90;;;;;;5000205;28;20029;-82
2021/09/05 10:43:58;;;;;;;12.60;7.78;;;21.40;99.90;;;;;;5012272;28;20060;-82
2021/09/05 10:46:46;;;;;;;11.50;7.38;;;21.60;99.90;;;;;;5018584;28;20034;-82
2021/09/05 10:49:13;;;;;;;9.50;6.78;;;21.60;99.90;;;;;;5026732;28;20052;-83
2021/09/05 10:51:43;;;;;;;12.57;7.00;;;21.70;99.90;;;;;;5018111;28;20040;-83
2021/09/05 10:54:11;;;;;;;9.43;6.93;;;21.70;99.90;;;;;;5017037;28;20025;-83
2021/09/05 10:56:43;;;;;;;9.90;6.40;;;21.80;99.90;;;;;;5019749;28;20037;-83
2021/09/05 10:59:20;;;;;;;10.45;7.43;;;21.70;99.90;;;;;;5035956;28;20108;-82
2021/09/05 11:01:46;;;;;;;10.07;6.82;;;21.70;99.90;;;;;;5017694;28;20060;-82
2021/09/05 11:07:00;;;;;;;8.43;6.13;;;21.90;99.90;;;;;;5016821;28;20502;-83
2021/09/05 11:09:27;;;;;;;10.48;5.97;;;22.00;99.90;;;;;;5002712;28;20436;-82
2021/09/05 11:11:57;;;;;;;9.52;6.53;;;22.10;99.90;;;;;;5033834;28;20026;-83
2021/09/05 11:14:36;;;;;;;9.43;5.90;;;22.10;99.90;;;;;;5016514;28;20514;-83
2021/09/05 11:17:19;;;;;;;7.88;5.70;;;22.20;99.90;;;;;;5019038;28;20033;-83
2021/09/05 11:19:48;;;;;;;9.32;5.63;;;22.30;99.90;;;;;;5016201;28;20026;-83
2021/09/05 11:22:32;;;;;;;7.47;5.53;;;22.30;99.90;;;;;;5016362;28;20110;-83
2021/09/05 11:25:07;;;;;;;7.47;4.93;;;22.40;99.90;;;;;;5015813;28;20030;-83
2021/09/05 11:27:34;;;;;;;6.88;4.95;;;22.30;99.90;;;;;;5025986;28;20052;-82
2021/09/05 11:30:02;;;;;;;6.80;5.15;;;22.30;99.90;;;;;;4976110;28;20026;-82
2021/09/05 11:32:28;;;;;;;8.98;5.68;;;22.40;99.90;;;;;;4999994;28;20087;-82
2021/09/05 11:34:56;;;;;;;8.07;5.80;;;22.50;99.90;;;;;;4999704;28;20037;-82
2021/09/05 11:37:30;;;;;;;7.63;5.03;;;22.50;99.90;;;;;;5001371;28;20022;-81
2021/09/05 11:40:03;;;;;;;9.02;5.72;;;22.50;99.90;;;;;;5016913;28;20030;-81
2021/09/05 11:42:29;;;;;;;8.85;5.43;;;22.30;99.90;;;;;;5033873;28;20034;-81
2021/09/05 11:45:09;;;;;;;9.70;4.95;;;22.10;99.90;;;;;;5008433;28;20040;-81
2021/09/05 11:47:35;;;;;;;6.80;4.80;;;21.90;99.90;;;;;;4997672;28;20084;-81
2021/09/05 11:50:04;;;;;;;6.47;4.85;;;21.80;99.90;;;;;;5016043;28;20033;-82
2021/09/05 11:52:35;;;;;;;8.02;5.20;;;21.70;99.90;;;;;;5017303;28;20040;-82
2021/09/05 11:55:09;;;;;;;6.50;3.95;;;21.70;99.90;;;;;;5000302;28;20038;-82
2021/09/05 11:57:49;;;;;;;5.38;4.32;;;21.60;99.90;;;;;;5041318;28;20029;-82
2021/09/05 12:00:25;;;;;;;5.85;3.92;;;21.60;99.90;;;;;;5015934;28;20116;-82
2021/09/05 12:02:52;;;;;;;4.82;4.15;;;21.60;99.90;;;;;;5035356;28;20026;-82
2021/09/05 12:05:19;;;;;;;5.60;3.38;;;21.60;99.90;;;;;;5015009;28;20051;-81
2021/09/05 12:07:45;;;;;;;3.75;3.30;;;21.70;99.90;;;;;;5000680;28;20029;-82
2021/09/05 12:10:14;;;;;;;5.53;3.45;;;21.90;99.90;;;;;;5018291;28;20029;-82
2021/09/05 12:12:43;;;;;;;4.38;3.35;;;22.10;97.80;;;;;;5004151;28;20037;-82
2021/09/05 12:15:20;;;;;;;5.13;3.63;;;22.30;95.70;;;;;;5019120;28;20041;-82
2021/09/05 12:17:49;;;;;;;5.88;4.07;;;22.50;98.80;;;;;;5011608;28;20108;-82
2021/09/05 12:20:21;;;;;;;5.28;4.00;;;22.60;96.40;;;;;;5019547;28;20079;-81
2021/09/05 12:22:51;;;;;;;4.82;3.88;;;22.80;97.60;;;;;;5004019;28;20496;-81
2021/09/05 12:25:34;;;;;;;5.65;4.00;;;23.00;99.60;;;;;;5017660;28;20064;-82
2021/09/05 12:28:08;;;;;;;4.88;4.10;;;23.30;96.90;;;;;;5002058;28;20508;-81
2021/09/05 12:30:56;;;;;;;5.93;3.40;;;23.70;96.00;;;;;;5016390;28;20033;-81
2021/09/05 12:33:25;;;;;;;5.68;3.50;;;24.00;95.80;;;;;;5017818;28;20359;-81
2021/09/05 12:35:53;;;;;;;4.72;3.80;;;24.30;95.60;;;;;;5014907;28;20419;-81
2021/09/05 12:38:30;;;;;;;4.38;3.88;;;24.50;92.50;;;;;;5035508;28;20035;-81
2021/09/05 12:41:10;;;;;;;4.97;3.72;;;24.60;84.90;;;;;;4999862;28;20060;-81
2021/09/05 12:43:43;;;;;;;4.82;3.65;;;24.40;84.80;;;;;;5015627;28;20026;-81
2021/09/05 12:46:10;;;;;;;5.43;3.50;;;24.30;92.70;;;;;;5015179;28;20033;-81
2021/09/05 12:48:37;;;;;;;4.15;3.33;;;24.20;90.10;;;;;;5033963;28;20593;-81
2021/09/05 12:51:10;;;;;;;5.55;3.78;;;24.10;80.70;;;;;;5014898;28;20040;-81
2021/09/05 12:53:50;;;;;;;6.65;3.75;;;24.10;81.10;;;;;;4996617;28;20029;-81
2021/09/05 12:56:17;;;;;;;4.75;3.42;;;24.20;81.70;;;;;;4997168;28;20038;-81
2021/09/05 12:58:43;;;;;;;6.05;3.70;;;24.20;89.70;;;;;;5015605;28;20021;-81
2021/09/05 13:01:22;;;;;;;5.63;3.13;;;24.20;80.00;;;;;;5002610;28;20032;-81